sensor_id;sensor_type;location;lat;lon;timestamp;P1;durP1;ratioP1;P2;durP2;ratioP2
13331;SDS011;6735;51.456;12.626;2022-09-09T00:00:16;5.63;;;3.27;;
13331;SDS011;6735;51.456;12.626;2022-09-09T00:02:49;6.00;;;3.07;;
13331;SDS011;6735;51.456;12.626;2022-09-09T00:11:21;5.53;;;3.23;;
13331;SDS011;6735;51.456;12.626;2022-09-09T00:13:52;4.70;;;3.33;;
13331;SDS011;6735;51.456;12.626;2022-09-09T00:16:22;3.60;;;3.10;;
13331;SDS011;6735;51.456;12.626;2022-09-09T00:18:58;2.90;;;2.70;;
13331;SDS011;6735;51.456;12.626;2022-09-09T00:21:38;7.47;;;3.50;;
13331;SDS011;6735;51.456;12.626;2022-09-09T00:24:23;3.70;;;3.30;;
13331;SDS011;6735;51.456;12.626;2022-09-09T00:26:53;5.43;;;3.30;;
13331;SDS011;6735;51.456;12.626;2022-09-09T00:29:32;5.37;;;3.70;;
13331;SDS011;6735;51.456;12.626;2022-09-09T00:32:14;7.37;;;3.47;;
13331;SDS011;6735;51.456;12.626;2022-09-09T00:34:47;6.80;;;3.10;;
13331;SDS011;6735;51.456;12.626;2022-09-09T00:37:23;4.53;;;3.27;;
13331;SDS011;6735;51.456;12.626;2022-09-09T00:39:50;6.17;;;3.20;;
13331;SDS011;6735;51.456;12.626;2022-09-09T00:47:43;7.60;;;3.73;;
13331;SDS011;6735;51.456;12.626;2022-09-09T00:56:13;6.27;;;3.90;;
13331;SDS011;6735;51.456;12.626;2022-09-09T00:58:57;5.75;;;3.65;;
13331;SDS011;6735;51.456;12.626;2022-09-09T01:01:36;6.90;;;3.77;;
13331;SDS011;6735;51.456;12.626;2022-09-09T01:04:04;4.80;;;3.40;;
13331;SDS011;6735;51.456;12.626;2022-09-09T01:06:37;4.73;;;3.90;;
13331;SDS011;6735;51.456;12.626;2022-09-09T01:12:07;5.23;;;3.60;;
13331;SDS011;6735;51.456;12.626;2022-09-09T01:17:26;9.40;;;3.57;;
13331;SDS011;6735;51.456;12.626;2022-09-09T01:20:02;5.67;;;3.80;;
13331;SDS011;6735;51.456;12.626;2022-09-09T01:25:22;6.60;;;3.60;;
13331;SDS011;6735;51.456;12.626;2022-09-09T01:28:13;4.23;;;3.73;;
13331;SDS011;6735;51.456;12.626;2022-09-09T01:30:44;4.13;;;3.40;;
13331;SDS011;6735;51.456;12.626;2022-09-09T01:33:13;7.30;;;3.60;;
13331;SDS011;6735;51.456;12.626;2022-09-09T01:38:19;9.37;;;3.73;;
13331;SDS011;6735;51.456;12.626;2022-09-09T01:40:46;7.07;;;3.60;;
13331;SDS011;6735;51.456;12.626;2022-09-09T01:43:12;7.20;;;3.73;;
13331;SDS011;6735;51.456;12.626;2022-09-09T01:45:39;6.93;;;3.90;;
13331;SDS011;6735;51.456;12.626;2022-09-09T01:48:07;5.87;;;3.70;;
13331;SDS011;6735;51.456;12.626;2022-09-09T01:50:32;5.00;;;3.83;;
13331;SDS011;6735;51.456;12.626;2022-09-09T01:52:59;5.50;;;3.73;;
13331;SDS011;6735;51.456;12.626;2022-09-09T01:55:31;5.10;;;4.00;;
13331;SDS011;6735;51.456;12.626;2022-09-09T02:00:53;6.77;;;3.83;;
13331;SDS011;6735;51.456;12.626;2022-09-09T02:03:44;3.70;;;3.40;;
13331;SDS011;6735;51.456;12.626;2022-09-09T02:08:56;4.73;;;4.00;;
13331;SDS011;6735;51.456;12.626;2022-09-09T02:11:23;4.23;;;3.73;;
13331;SDS011;6735;51.456;12.626;2022-09-09T02:13:59;5.60;;;3.83;;
13331;SDS011;6735;51.456;12.626;2022-09-09T02:21:27;7.53;;;4.10;;
13331;SDS011;6735;51.456;12.626;2022-09-09T02:23:55;5.57;;;3.83;;
13331;SDS011;6735;51.456;12.626;2022-09-09T02:26:23;8.63;;;3.47;;
13331;SDS011;6735;51.456;12.626;2022-09-09T02:28:50;4.77;;;3.40;;
13331;SDS011;6735;51.456;12.626;2022-09-09T02:31:20;6.60;;;3.40;;
13331;SDS011;6735;51.456;12.626;2022-09-09T02:33:50;6.13;;;3.37;;
13331;SDS011;6735;51.456;12.626;2022-09-09T02:36:20;4.63;;;3.10;;
13331;SDS011;6735;51.456;12.626;2022-09-09T02:38:48;6.07;;;3.80;;
13331;SDS011;6735;51.456;12.626;2022-09-09T02:41:17;5.37;;;3.67;;
13331;SDS011;6735;51.456;12.626;2022-09-09T02:43:45;7.73;;;3.40;;
13331;SDS011;6735;51.456;12.626;2022-09-09T02:49:18;5.93;;;3.80;;
13331;SDS011;6735;51.456;12.626;2022-09-09T02:51:50;5.70;;;3.30;;
13331;SDS011;6735;51.456;12.626;2022-09-09T02:54:31;4.20;;;3.17;;
13331;SDS011;6735;51.456;12.626;2022-09-09T02:57:06;3.73;;;3.43;;
13331;SDS011;6735;51.456;12.626;2022-09-09T02:59:33;7.57;;;3.33;;
13331;SDS011;6735;51.456;12.626;2022-09-09T03:01:59;3.33;;;3.03;;
13331;SDS011;6735;51.456;12.626;2022-09-09T03:04:24;5.40;;;3.10;;
13331;SDS011;6735;51.456;12.626;2022-09-09T03:06:50;4.73;;;3.60;;
13331;SDS011;6735;51.456;12.626;2022-09-09T03:09:16;3.50;;;3.20;;
13331;SDS011;6735;51.456;12.626;2022-09-09T03:11:41;3.77;;;3.20;;
13331;SDS011;6735;51.456;12.626;2022-09-09T03:14:07;8.27;;;3.30;;
13331;SDS011;6735;51.456;12.626;2022-09-09T03:16:33;7.13;;;3.40;;
13331;SDS011;6735;51.456;12.626;2022-09-09T03:18:59;6.50;;;3.40;;
13331;SDS011;6735;51.456;12.626;2022-09-09T03:21:25;3.47;;;3.10;;
13331;SDS011;6735;51.456;12.626;2022-09-09T03:23:51;3.60;;;3.00;;
13331;SDS011;6735;51.456;12.626;2022-09-09T03:26:17;4.43;;;3.27;;
13331;SDS011;6735;51.456;12.626;2022-09-09T03:28:42;4.43;;;3.67;;
13331;SDS011;6735;51.456;12.626;2022-09-09T03:31:10;4.03;;;3.50;;
13331;SDS011;6735;51.456;12.626;2022-09-09T03:33:36;10.07;;;3.80;;
13331;SDS011;6735;51.456;12.626;2022-09-09T03:36:03;5.27;;;3.60;;
13331;SDS011;6735;51.456;12.626;2022-09-09T03:38:29;4.63;;;3.23;;
13331;SDS011;6735;51.456;12.626;2022-09-09T03:40:55;3.97;;;3.40;;
13331;SDS011;6735;51.456;12.626;2022-09-09T03:43:22;3.90;;;3.50;;
13331;SDS011;6735;51.456;12.626;2022-09-09T03:45:49;5.03;;;4.13;;
13331;SDS011;6735;51.456;12.626;2022-09-09T03:48:15;13.63;;;9.50;;
13331;SDS011;6735;51.456;12.626;2022-09-09T03:50:48;9.67;;;4.90;;
13331;SDS011;6735;51.456;12.626;2022-09-09T03:53:15;7.00;;;3.93;;
13331;SDS011;6735;51.456;12.626;2022-09-09T03:55:46;4.50;;;4.07;;
13331;SDS011;6735;51.456;12.626;2022-09-09T03:58:15;10.67;;;3.53;;
13331;SDS011;6735;51.456;12.626;2022-09-09T04:00:43;6.03;;;3.50;;
13331;SDS011;6735;51.456;12.626;2022-09-09T04:03:17;3.73;;;3.27;;
13331;SDS011;6735;51.456;12.626;2022-09-09T04:05:43;8.10;;;3.60;;
13331;SDS011;6735;51.456;12.626;2022-09-09T04:08:08;4.60;;;3.80;;
13331;SDS011;6735;51.456;12.626;2022-09-09T04:10:34;8.63;;;5.40;;
13331;SDS011;6735;51.456;12.626;2022-09-09T04:13:02;7.00;;;4.30;;
13331;SDS011;6735;51.456;12.626;2022-09-09T04:15:28;8.10;;;3.60;;
13331;SDS011;6735;51.456;12.626;2022-09-09T04:17:54;3.33;;;3.00;;
13331;SDS011;6735;51.456;12.626;2022-09-09T04:20:19;8.10;;;3.30;;
13331;SDS011;6735;51.456;12.626;2022-09-09T04:22:45;3.87;;;3.20;;
13331;SDS011;6735;51.456;12.626;2022-09-09T04:25:10;4.63;;;2.90;;
13331;SDS011;6735;51.456;12.626;2022-09-09T04:27:35;4.80;;;3.47;;
13331;SDS011;6735;51.456;12.626;2022-09-09T04:30:01;6.17;;;3.40;;
13331;SDS011;6735;51.456;12.626;2022-09-09T04:32:27;5.17;;;3.00;;
13331;SDS011;6735;51.456;12.626;2022-09-09T04:34:53;5.23;;;3.40;;
13331;SDS011;6735;51.456;12.626;2022-09-09T04:37:18;5.37;;;3.40;;
13331;SDS011;6735;51.456;12.626;2022-09-09T04:39:44;5.13;;;3.40;;
13331;SDS011;6735;51.456;12.626;2022-09-09T04:42:10;3.30;;;3.00;;
13331;SDS011;6735;51.456;12.626;2022-09-09T04:44:36;5.27;;;3.40;;
13331;SDS011;6735;51.456;12.626;2022-09-09T04:47:02;6.73;;;3.30;;
13331;SDS011;6735;51.456;12.626;2022-09-09T04:49:27;7.50;;;3.30;;
13331;SDS011;6735;51.456;12.626;2022-09-09T04:51:53;4.73;;;3.10;;
13331;SDS011;6735;51.456;12.626;2022-09-09T04:54:18;5.37;;;3.03;;
13331;SDS011;6735;51.456;12.626;2022-09-09T04:56:44;4.67;;;3.40;;
13331;SDS011;6735;51.456;12.626;2022-09-09T04:59:09;7.63;;;3.20;;
13331;SDS011;6735;51.456;12.626;2022-09-09T05:01:35;5.80;;;3.50;;
13331;SDS011;6735;51.456;12.626;2022-09-09T05:04:01;6.27;;;2.80;;
13331;SDS011;6735;51.456;12.626;2022-09-09T05:06:27;4.23;;;2.90;;
13331;SDS011;6735;51.456;12.626;2022-09-09T05:08:54;4.40;;;2.90;;
13331;SDS011;6735;51.456;12.626;2022-09-09T05:11:21;4.50;;;2.80;;
13331;SDS011;6735;51.456;12.626;2022-09-09T05:13:51;5.30;;;2.80;;
13331;SDS011;6735;51.456;12.626;2022-09-09T05:16:18;4.10;;;3.00;;
13331;SDS011;6735;51.456;12.626;2022-09-09T05:18:44;4.63;;;2.60;;
13331;SDS011;6735;51.456;12.626;2022-09-09T05:21:11;5.20;;;2.50;;
13331;SDS011;6735;51.456;12.626;2022-09-09T05:23:38;4.97;;;2.73;;
13331;SDS011;6735;51.456;12.626;2022-09-09T05:26:04;4.97;;;2.80;;
13331;SDS011;6735;51.456;12.626;2022-09-09T05:28:31;6.67;;;3.00;;
13331;SDS011;6735;51.456;12.626;2022-09-09T05:31:03;4.00;;;2.47;;
13331;SDS011;6735;51.456;12.626;2022-09-09T05:33:32;4.57;;;2.80;;
13331;SDS011;6735;51.456;12.626;2022-09-09T05:35:59;4.63;;;2.63;;
13331;SDS011;6735;51.456;12.626;2022-09-09T05:38:27;4.57;;;2.60;;
13331;SDS011;6735;51.456;12.626;2022-09-09T05:40:54;5.07;;;2.80;;
13331;SDS011;6735;51.456;12.626;2022-09-09T05:43:21;3.40;;;2.30;;
13331;SDS011;6735;51.456;12.626;2022-09-09T05:45:47;7.03;;;2.60;;
13331;SDS011;6735;51.456;12.626;2022-09-09T05:48:16;6.67;;;2.73;;
13331;SDS011;6735;51.456;12.626;2022-09-09T05:50:42;3.60;;;2.43;;
13331;SDS011;6735;51.456;12.626;2022-09-09T05:53:08;3.80;;;2.50;;
13331;SDS011;6735;51.456;12.626;2022-09-09T05:55:35;6.50;;;2.67;;
13331;SDS011;6735;51.456;12.626;2022-09-09T05:58:00;5.00;;;2.70;;
13331;SDS011;6735;51.456;12.626;2022-09-09T06:00:26;3.23;;;2.43;;
13331;SDS011;6735;51.456;12.626;2022-09-09T06:02:52;5.97;;;2.70;;
13331;SDS011;6735;51.456;12.626;2022-09-09T06:05:18;3.97;;;2.60;;
13331;SDS011;6735;51.456;12.626;2022-09-09T06:07:44;3.93;;;2.40;;
13331;SDS011;6735;51.456;12.626;2022-09-09T06:10:10;3.80;;;2.53;;
13331;SDS011;6735;51.456;12.626;2022-09-09T06:12:38;6.37;;;2.57;;
13331;SDS011;6735;51.456;12.626;2022-09-09T06:15:04;4.43;;;2.70;;
13331;SDS011;6735;51.456;12.626;2022-09-09T06:17:30;3.60;;;2.37;;
13331;SDS011;6735;51.456;12.626;2022-09-09T06:19:55;4.77;;;2.30;;
13331;SDS011;6735;51.456;12.626;2022-09-09T06:22:21;4.83;;;2.60;;
13331;SDS011;6735;51.456;12.626;2022-09-09T06:24:47;4.53;;;2.53;;
13331;SDS011;6735;51.456;12.626;2022-09-09T06:27:12;6.50;;;2.57;;
13331;SDS011;6735;51.456;12.626;2022-09-09T06:29:38;6.10;;;2.37;;
13331;SDS011;6735;51.456;12.626;2022-09-09T06:32:04;6.73;;;2.83;;
13331;SDS011;6735;51.456;12.626;2022-09-09T06:34:30;6.03;;;2.10;;
13331;SDS011;6735;51.456;12.626;2022-09-09T06:36:55;3.63;;;2.30;;
13331;SDS011;6735;51.456;12.626;2022-09-09T06:39:22;4.43;;;2.20;;
13331;SDS011;6735;51.456;12.626;2022-09-09T06:41:48;3.53;;;2.30;;
13331;SDS011;6735;51.456;12.626;2022-09-09T06:44:14;3.93;;;2.30;;
13331;SDS011;6735;51.456;12.626;2022-09-09T06:46:40;7.63;;;4.43;;
13331;SDS011;6735;51.456;12.626;2022-09-09T06:49:07;2.30;;;2.10;;
13331;SDS011;6735;51.456;12.626;2022-09-09T06:51:34;4.20;;;2.23;;
13331;SDS011;6735;51.456;12.626;2022-09-09T06:54:01;2.37;;;2.10;;
13331;SDS011;6735;51.456;12.626;2022-09-09T06:56:29;4.17;;;2.30;;
13331;SDS011;6735;51.456;12.626;2022-09-09T06:59:00;4.50;;;1.90;;
13331;SDS011;6735;51.456;12.626;2022-09-09T07:01:38;3.73;;;2.20;;
13331;SDS011;6735;51.456;12.626;2022-09-09T07:04:11;4.20;;;2.33;;
13331;SDS011;6735;51.456;12.626;2022-09-09T07:06:38;4.77;;;2.10;;
13331;SDS011;6735;51.456;12.626;2022-09-09T07:09:06;5.20;;;2.30;;
13331;SDS011;6735;51.456;12.626;2022-09-09T07:11:34;3.97;;;2.00;;
13331;SDS011;6735;51.456;12.626;2022-09-09T07:14:03;3.33;;;1.87;;
13331;SDS011;6735;51.456;12.626;2022-09-09T07:16:29;2.30;;;2.00;;
13331;SDS011;6735;51.456;12.626;2022-09-09T07:18:56;7.80;;;2.40;;
13331;SDS011;6735;51.456;12.626;2022-09-09T07:21:25;3.90;;;2.17;;
13331;SDS011;6735;51.456;12.626;2022-09-09T07:23:52;3.23;;;2.40;;
13331;SDS011;6735;51.456;12.626;2022-09-09T07:26:19;2.97;;;2.20;;
13331;SDS011;6735;51.456;12.626;2022-09-09T07:28:46;3.27;;;1.83;;
13331;SDS011;6735;51.456;12.626;2022-09-09T07:31:13;3.53;;;1.83;;
13331;SDS011;6735;51.456;12.626;2022-09-09T07:33:41;4.20;;;2.10;;
13331;SDS011;6735;51.456;12.626;2022-09-09T07:38:39;3.57;;;2.20;;
13331;SDS011;6735;51.456;12.626;2022-09-09T07:41:06;5.63;;;2.10;;
13331;SDS011;6735;51.456;12.626;2022-09-09T07:43:36;6.67;;;2.17;;
13331;SDS011;6735;51.456;12.626;2022-09-09T07:46:03;3.53;;;1.80;;
13331;SDS011;6735;51.456;12.626;2022-09-09T07:48:28;3.60;;;1.60;;
13331;SDS011;6735;51.456;12.626;2022-09-09T07:51:02;4.27;;;2.00;;
13331;SDS011;6735;51.456;12.626;2022-09-09T07:53:31;3.77;;;1.80;;
13331;SDS011;6735;51.456;12.626;2022-09-09T07:56:02;2.00;;;1.60;;
13331;SDS011;6735;51.456;12.626;2022-09-09T07:58:28;4.10;;;1.77;;
13331;SDS011;6735;51.456;12.626;2022-09-09T08:00:54;2.50;;;1.50;;
13331;SDS011;6735;51.456;12.626;2022-09-09T08:03:19;2.13;;;1.43;;
13331;SDS011;6735;51.456;12.626;2022-09-09T08:05:46;3.00;;;1.63;;
13331;SDS011;6735;51.456;12.626;2022-09-09T08:08:12;4.17;;;1.80;;
13331;SDS011;6735;51.456;12.626;2022-09-09T08:10:37;3.70;;;1.67;;
13331;SDS011;6735;51.456;12.626;2022-09-09T08:13:03;3.73;;;1.90;;
13331;SDS011;6735;51.456;12.626;2022-09-09T08:15:29;6.07;;;2.40;;
13331;SDS011;6735;51.456;12.626;2022-09-09T08:17:56;4.53;;;2.20;;
13331;SDS011;6735;51.456;12.626;2022-09-09T08:20:21;2.40;;;1.60;;
13331;SDS011;6735;51.456;12.626;2022-09-09T08:22:48;3.90;;;1.80;;
13331;SDS011;6735;51.456;12.626;2022-09-09T08:25:14;2.73;;;1.70;;
13331;SDS011;6735;51.456;12.626;2022-09-09T08:27:40;2.97;;;1.60;;
13331;SDS011;6735;51.456;12.626;2022-09-09T08:30:06;2.97;;;1.70;;
13331;SDS011;6735;51.456;12.626;2022-09-09T08:32:32;3.47;;;1.70;;
13331;SDS011;6735;51.456;12.626;2022-09-09T08:34:57;2.83;;;1.80;;
13331;SDS011;6735;51.456;12.626;2022-09-09T08:37:23;2.77;;;1.77;;
13331;SDS011;6735;51.456;12.626;2022-09-09T08:39:48;4.33;;;1.93;;
13331;SDS011;6735;51.456;12.626;2022-09-09T08:45:14;1.93;;;1.60;;
13331;SDS011;6735;51.456;12.626;2022-09-09T08:50:44;2.40;;;1.50;;
13331;SDS011;6735;51.456;12.626;2022-09-09T08:53:21;3.80;;;1.80;;
13331;SDS011;6735;51.456;12.626;2022-09-09T08:56:03;3.37;;;1.80;;
13331;SDS011;6735;51.456;12.626;2022-09-09T08:58:38;3.57;;;1.60;;
13331;SDS011;6735;51.456;12.626;2022-09-09T09:04:10;2.90;;;1.50;;
13331;SDS011;6735;51.456;12.626;2022-09-09T09:10:25;4.13;;;1.63;;
13331;SDS011;6735;51.456;12.626;2022-09-09T09:13:07;3.17;;;1.50;;
13331;SDS011;6735;51.456;12.626;2022-09-09T09:15:41;3.23;;;1.60;;
13331;SDS011;6735;51.456;12.626;2022-09-09T09:18:10;3.87;;;1.80;;
13331;SDS011;6735;51.456;12.626;2022-09-09T09:20:49;4.27;;;1.97;;
13331;SDS011;6735;51.456;12.626;2022-09-09T09:23:26;3.83;;;1.60;;
13331;SDS011;6735;51.456;12.626;2022-09-09T09:26:05;6.60;;;1.90;;
13331;SDS011;6735;51.456;12.626;2022-09-09T09:28:33;4.30;;;1.70;;
13331;SDS011;6735;51.456;12.626;2022-09-09T09:31:11;5.43;;;1.70;;
13331;SDS011;6735;51.456;12.626;2022-09-09T09:36:06;2.80;;;1.70;;
13331;SDS011;6735;51.456;12.626;2022-09-09T09:38:33;4.53;;;1.60;;
13331;SDS011;6735;51.456;12.626;2022-09-09T09:41:00;3.33;;;1.77;;
13331;SDS011;6735;51.456;12.626;2022-09-09T09:43:26;4.87;;;1.70;;
13331;SDS011;6735;51.456;12.626;2022-09-09T09:45:54;6.90;;;1.83;;
13331;SDS011;6735;51.456;12.626;2022-09-09T09:48:20;3.97;;;1.63;;
13331;SDS011;6735;51.456;12.626;2022-09-09T09:53:35;4.07;;;1.63;;
13331;SDS011;6735;51.456;12.626;2022-09-09T09:56:05;2.90;;;1.50;;
13331;SDS011;6735;51.456;12.626;2022-09-09T09:58:50;6.10;;;1.77;;
13331;SDS011;6735;51.456;12.626;2022-09-09T10:01:25;3.63;;;1.60;;
13331;SDS011;6735;51.456;12.626;2022-09-09T10:03:53;3.50;;;1.67;;
13331;SDS011;6735;51.456;12.626;2022-09-09T10:06:32;3.57;;;1.50;;
13331;SDS011;6735;51.456;12.626;2022-09-09T10:08:59;3.70;;;1.33;;
13331;SDS011;6735;51.456;12.626;2022-09-09T10:11:35;3.33;;;1.70;;
13331;SDS011;6735;51.456;12.626;2022-09-09T10:14:32;3.63;;;1.67;;
13331;SDS011;6735;51.456;12.626;2022-09-09T10:17:53;5.90;;;1.80;;
13331;SDS011;6735;51.456;12.626;2022-09-09T10:31:51;6.00;;;1.97;;
13331;SDS011;6735;51.456;12.626;2022-09-09T10:34:47;5.90;;;1.70;;
13331;SDS011;6735;51.456;12.626;2022-09-09T10:37:48;4.23;;;1.90;;
13331;SDS011;6735;51.456;12.626;2022-09-09T10:40:26;3.30;;;1.60;;
13331;SDS011;6735;51.456;12.626;2022-09-09T10:42:59;5.17;;;1.70;;
13331;SDS011;6735;51.456;12.626;2022-09-09T10:45:36;4.50;;;1.67;;
13331;SDS011;6735;51.456;12.626;2022-09-09T10:50:44;9.00;;;1.70;;
13331;SDS011;6735;51.456;12.626;2022-09-09T10:53:27;2.73;;;1.53;;
13331;SDS011;6735;51.456;12.626;2022-09-09T10:56:09;5.00;;;1.90;;
13331;SDS011;6735;51.456;12.626;2022-09-09T10:58:42;5.93;;;1.73;;
13331;SDS011;6735;51.456;12.626;2022-09-09T11:01:15;2.73;;;1.57;;
13331;SDS011;6735;51.456;12.626;2022-09-09T11:04:25;4.70;;;1.90;;
13331;SDS011;6735;51.456;12.626;2022-09-09T11:06:48;5.47;;;1.70;;
13331;SDS011;6735;51.456;12.626;2022-09-09T11:09:19;2.40;;;1.60;;
13331;SDS011;6735;51.456;12.626;2022-09-09T11:11:55;5.40;;;1.73;;
13331;SDS011;6735;51.456;12.626;2022-09-09T11:14:27;2.93;;;1.50;;
13331;SDS011;6735;51.456;12.626;2022-09-09T11:17:02;2.60;;;1.50;;
13331;SDS011;6735;51.456;12.626;2022-09-09T11:19:41;3.17;;;1.50;;
13331;SDS011;6735;51.456;12.626;2022-09-09T11:25:02;3.17;;;1.63;;
13331;SDS011;6735;51.456;12.626;2022-09-09T11:27:44;6.70;;;1.80;;
13331;SDS011;6735;51.456;12.626;2022-09-09T11:30:22;2.57;;;1.40;;
13331;SDS011;6735;51.456;12.626;2022-09-09T11:35:43;4.57;;;1.73;;
13331;SDS011;6735;51.456;12.626;2022-09-09T11:38:31;3.50;;;1.30;;
13331;SDS011;6735;51.456;12.626;2022-09-09T11:41:06;2.03;;;1.60;;
13331;SDS011;6735;51.456;12.626;2022-09-09T11:43:44;4.43;;;1.80;;
13331;SDS011;6735;51.456;12.626;2022-09-09T11:46:12;3.30;;;1.60;;
13331;SDS011;6735;51.456;12.626;2022-09-09T11:48:41;5.33;;;1.60;;
13331;SDS011;6735;51.456;12.626;2022-09-09T11:51:11;5.63;;;1.80;;
13331;SDS011;6735;51.456;12.626;2022-09-09T11:54:00;4.83;;;1.80;;
13331;SDS011;6735;51.456;12.626;2022-09-09T11:56:28;5.07;;;1.60;;
13331;SDS011;6735;51.456;12.626;2022-09-09T11:59:06;4.93;;;1.60;;
13331;SDS011;6735;51.456;12.626;2022-09-09T12:01:45;3.83;;;1.50;;
13331;SDS011;6735;51.456;12.626;2022-09-09T12:04:16;4.43;;;1.70;;
13331;SDS011;6735;51.456;12.626;2022-09-09T12:07:01;3.53;;;1.77;;
13331;SDS011;6735;51.456;12.626;2022-09-09T12:17:21;7.63;;;2.07;;
13331;SDS011;6735;51.456;12.626;2022-09-09T12:20:03;2.70;;;1.60;;
13331;SDS011;6735;51.456;12.626;2022-09-09T12:22:45;3.10;;;1.60;;
13331;SDS011;6735;51.456;12.626;2022-09-09T12:25:47;4.10;;;1.50;;
13331;SDS011;6735;51.456;12.626;2022-09-09T12:28:55;4.70;;;1.43;;
13331;SDS011;6735;51.456;12.626;2022-09-09T12:31:44;3.57;;;1.70;;
13331;SDS011;6735;51.456;12.626;2022-09-09T12:34:33;3.83;;;1.80;;
13331;SDS011;6735;51.456;12.626;2022-09-09T12:37:05;5.57;;;1.70;;
13331;SDS011;6735;51.456;12.626;2022-09-09T12:39:53;3.20;;;1.50;;
13331;SDS011;6735;51.456;12.626;2022-09-09T12:42:22;2.53;;;1.73;;
13331;SDS011;6735;51.456;12.626;2022-09-09T12:44:52;4.13;;;1.80;;
13331;SDS011;6735;51.456;12.626;2022-09-09T12:47:17;4.90;;;1.97;;
13331;SDS011;6735;51.456;12.626;2022-09-09T12:49:45;4.10;;;1.73;;
13331;SDS011;6735;51.456;12.626;2022-09-09T12:54:44;4.40;;;1.83;;
13331;SDS011;6735;51.456;12.626;2022-09-09T12:57:12;5.13;;;1.63;;
13331;SDS011;6735;51.456;12.626;2022-09-09T12:59:39;2.03;;;1.30;;
13331;SDS011;6735;51.456;12.626;2022-09-09T13:02:23;4.80;;;1.67;;
13331;SDS011;6735;51.456;12.626;2022-09-09T13:04:52;3.07;;;1.70;;
13331;SDS011;6735;51.456;12.626;2022-09-09T13:07:19;3.50;;;1.60;;
13331;SDS011;6735;51.456;12.626;2022-09-09T13:09:47;3.73;;;1.80;;
13331;SDS011;6735;51.456;12.626;2022-09-09T13:12:15;4.37;;;1.50;;
13331;SDS011;6735;51.456;12.626;2022-09-09T13:14:43;3.87;;;1.53;;
13331;SDS011;6735;51.456;12.626;2022-09-09T13:17:17;3.53;;;1.60;;
13331;SDS011;6735;51.456;12.626;2022-09-09T13:19:48;4.30;;;1.50;;
13331;SDS011;6735;51.456;12.626;2022-09-09T13:22:20;3.17;;;1.40;;
13331;SDS011;6735;51.456;12.626;2022-09-09T13:25:04;5.00;;;1.70;;
13331;SDS011;6735;51.456;12.626;2022-09-09T13:27:51;4.73;;;1.87;;
13331;SDS011;6735;51.456;12.626;2022-09-09T13:30:31;5.17;;;1.80;;
13331;SDS011;6735;51.456;12.626;2022-09-09T13:33:02;5.70;;;1.70;;
13331;SDS011;6735;51.456;12.626;2022-09-09T13:35:34;7.40;;;1.87;;
13331;SDS011;6735;51.456;12.626;2022-09-09T13:38:09;6.93;;;2.10;;
13331;SDS011;6735;51.456;12.626;2022-09-09T13:40:35;4.00;;;1.70;;
13331;SDS011;6735;51.456;12.626;2022-09-09T13:43:02;4.67;;;2.07;;
13331;SDS011;6735;51.456;12.626;2022-09-09T13:45:28;2.80;;;1.60;;
13331;SDS011;6735;51.456;12.626;2022-09-09T13:47:54;4.00;;;1.70;;
13331;SDS011;6735;51.456;12.626;2022-09-09T13:52:49;6.17;;;1.73;;
13331;SDS011;6735;51.456;12.626;2022-09-09T13:55:18;3.77;;;1.67;;
13331;SDS011;6735;51.456;12.626;2022-09-09T13:57:50;3.30;;;1.70;;
13331;SDS011;6735;51.456;12.626;2022-09-09T14:00:19;3.43;;;1.73;;
13331;SDS011;6735;51.456;12.626;2022-09-09T14:02:45;6.57;;;3.40;;
13331;SDS011;6735;51.456;12.626;2022-09-09T14:05:12;3.23;;;1.80;;
13331;SDS011;6735;51.456;12.626;2022-09-09T14:07:38;7.03;;;1.90;;
13331;SDS011;6735;51.456;12.626;2022-09-09T14:10:05;4.47;;;1.70;;
13331;SDS011;6735;51.456;12.626;2022-09-09T14:12:31;4.20;;;1.97;;
13331;SDS011;6735;51.456;12.626;2022-09-09T14:14:56;3.57;;;1.60;;
13331;SDS011;6735;51.456;12.626;2022-09-09T14:17:22;3.50;;;1.63;;
13331;SDS011;6735;51.456;12.626;2022-09-09T14:19:47;4.53;;;1.47;;
13331;SDS011;6735;51.456;12.626;2022-09-09T14:22:13;3.43;;;1.70;;
13331;SDS011;6735;51.456;12.626;2022-09-09T14:24:39;3.43;;;1.60;;
13331;SDS011;6735;51.456;12.626;2022-09-09T14:27:05;3.40;;;1.60;;
13331;SDS011;6735;51.456;12.626;2022-09-09T14:29:31;3.87;;;1.80;;
13331;SDS011;6735;51.456;12.626;2022-09-09T14:31:58;5.10;;;1.70;;
13331;SDS011;6735;51.456;12.626;2022-09-09T14:34:25;3.67;;;1.33;;
13331;SDS011;6735;51.456;12.626;2022-09-09T14:36:51;2.83;;;1.17;;
13331;SDS011;6735;51.456;12.626;2022-09-09T14:39:16;4.07;;;0.90;;
13331;SDS011;6735;51.456;12.626;2022-09-09T14:41:42;3.77;;;1.33;;
13331;SDS011;6735;51.456;12.626;2022-09-09T14:44:08;2.03;;;1.00;;
13331;SDS011;6735;51.456;12.626;2022-09-09T14:46:33;1.30;;;0.90;;
13331;SDS011;6735;51.456;12.626;2022-09-09T14:48:59;2.93;;;1.10;;
13331;SDS011;6735;51.456;12.626;2022-09-09T14:51:24;1.73;;;0.90;;
13331;SDS011;6735;51.456;12.626;2022-09-09T14:53:53;3.63;;;1.00;;
13331;SDS011;6735;51.456;12.626;2022-09-09T14:56:22;2.37;;;1.00;;
13331;SDS011;6735;51.456;12.626;2022-09-09T14:58:49;2.03;;;0.97;;
13331;SDS011;6735;51.456;12.626;2022-09-09T15:01:16;3.03;;;1.27;;
13331;SDS011;6735;51.456;12.626;2022-09-09T15:03:48;2.70;;;1.10;;
13331;SDS011;6735;51.456;12.626;2022-09-09T15:06:16;4.23;;;1.30;;
13331;SDS011;6735;51.456;12.626;2022-09-09T15:08:42;2.40;;;1.13;;
13331;SDS011;6735;51.456;12.626;2022-09-09T15:11:09;3.17;;;1.20;;
13331;SDS011;6735;51.456;12.626;2022-09-09T15:13:36;3.37;;;1.27;;
13331;SDS011;6735;51.456;12.626;2022-09-09T15:16:06;3.93;;;1.17;;
13331;SDS011;6735;51.456;12.626;2022-09-09T15:18:33;2.17;;;1.20;;
13331;SDS011;6735;51.456;12.626;2022-09-09T15:20:59;8.40;;;5.80;;
13331;SDS011;6735;51.456;12.626;2022-09-09T15:23:26;7.00;;;4.67;;
13331;SDS011;6735;51.456;12.626;2022-09-09T15:25:55;4.33;;;1.50;;
13331;SDS011;6735;51.456;12.626;2022-09-09T15:28:21;1.10;;;1.00;;
13331;SDS011;6735;51.456;12.626;2022-09-09T15:30:50;2.03;;;1.07;;
13331;SDS011;6735;51.456;12.626;2022-09-09T15:33:20;1.60;;;0.90;;
13331;SDS011;6735;51.456;12.626;2022-09-09T15:35:47;3.23;;;1.20;;
13331;SDS011;6735;51.456;12.626;2022-09-09T15:38:14;2.53;;;1.10;;
13331;SDS011;6735;51.456;12.626;2022-09-09T15:40:41;2.47;;;0.90;;
13331;SDS011;6735;51.456;12.626;2022-09-09T15:43:07;5.13;;;1.27;;
13331;SDS011;6735;51.456;12.626;2022-09-09T15:45:34;2.97;;;1.10;;
13331;SDS011;6735;51.456;12.626;2022-09-09T15:48:00;3.70;;;1.33;;
13331;SDS011;6735;51.456;12.626;2022-09-09T15:50:26;6.73;;;1.20;;
13331;SDS011;6735;51.456;12.626;2022-09-09T15:52:54;1.77;;;1.10;;
13331;SDS011;6735;51.456;12.626;2022-09-09T15:55:19;3.97;;;1.70;;
13331;SDS011;6735;51.456;12.626;2022-09-09T15:57:45;2.17;;;1.00;;
13331;SDS011;6735;51.456;12.626;2022-09-09T16:00:11;2.97;;;1.33;;
13331;SDS011;6735;51.456;12.626;2022-09-09T16:02:38;3.13;;;2.50;;
13331;SDS011;6735;51.456;12.626;2022-09-09T16:05:04;4.90;;;3.40;;
13331;SDS011;6735;51.456;12.626;2022-09-09T16:07:31;3.27;;;1.40;;
13331;SDS011;6735;51.456;12.626;2022-09-09T16:09:56;2.67;;;1.43;;
13331;SDS011;6735;51.456;12.626;2022-09-09T16:12:21;2.67;;;1.20;;
13331;SDS011;6735;51.456;12.626;2022-09-09T16:14:47;4.30;;;1.27;;
13331;SDS011;6735;51.456;12.626;2022-09-09T16:17:13;2.40;;;1.20;;
13331;SDS011;6735;51.456;12.626;2022-09-09T16:19:40;1.83;;;1.30;;
13331;SDS011;6735;51.456;12.626;2022-09-09T16:22:05;1.80;;;1.30;;
13331;SDS011;6735;51.456;12.626;2022-09-09T16:24:31;3.67;;;1.37;;
13331;SDS011;6735;51.456;12.626;2022-09-09T16:26:57;3.73;;;1.50;;
13331;SDS011;6735;51.456;12.626;2022-09-09T16:29:23;4.97;;;1.70;;
13331;SDS011;6735;51.456;12.626;2022-09-09T16:31:52;2.67;;;1.30;;
13331;SDS011;6735;51.456;12.626;2022-09-09T16:34:19;2.20;;;1.30;;
13331;SDS011;6735;51.456;12.626;2022-09-09T16:36:45;3.03;;;1.30;;
13331;SDS011;6735;51.456;12.626;2022-09-09T16:39:13;5.53;;;1.60;;